createdAt,value
2023-03-27T00:01:36.485Z,82.90
2023-03-27T00:04:38.534Z,81.40
2023-03-27T00:07:40.912Z,82.00
2023-03-27T00:10:42.919Z,82.20
2023-03-27T00:13:50.389Z,81.40
2023-03-27T00:16:53.197Z,81.90
2023-03-27T00:19:55.180Z,82.50
2023-03-27T00:22:57.294Z,82.80
2023-03-27T00:25:59.661Z,83.30
2023-03-27T00:29:01.697Z,83.60
2023-03-27T00:32:04.369Z,83.70
2023-03-27T00:35:06.937Z,84.60
2023-03-27T00:38:08.874Z,84.80
2023-03-27T00:41:10.929Z,84.50
2023-03-27T00:44:42.344Z,84.60
2023-03-27T00:47:46.095Z,84.80
2023-03-27T00:50:49.804Z,83.90
2023-03-27T00:53:52.882Z,83.40
2023-03-27T00:56:58.364Z,82.40
2023-03-27T01:00:02.025Z,81.20
2023-03-27T01:03:08.223Z,81.40
2023-03-27T01:06:13.143Z,80.90
2023-03-27T01:09:20.825Z,80.70
2023-03-27T01:12:44.567Z,79.70
2023-03-27T01:16:22.920Z,78.50
2023-03-27T01:20:03.056Z,78.30
2023-03-27T01:23:59.796Z,78.70
2023-03-27T01:27:03.743Z,77.80
2023-03-27T01:30:14.035Z,77.40
2023-03-27T01:33:35.096Z,77.00
2023-03-27T01:36:58.674Z,76.70
2023-03-27T01:40:18.665Z,75.90
2023-03-27T01:43:36.429Z,76.70
2023-03-27T01:46:47.340Z,76.30
2023-03-27T01:49:55.962Z,75.50
2023-03-27T01:53:17.824Z,74.80
2023-03-27T01:56:51.888Z,71.90
2023-03-27T02:00:18.690Z,73.50
2023-03-27T02:03:27.718Z,73.50
2023-03-27T02:06:42.989Z,73.70
2023-03-27T02:09:50.467Z,72.20
2023-03-27T02:13:04.374Z,72.90
2023-03-27T02:16:14.785Z,71.20
2023-03-27T02:19:34.884Z,71.50
2023-03-27T02:22:41.399Z,72.90
2023-03-27T02:25:45.667Z,71.80
2023-03-27T02:29:21.564Z,72.30
2023-03-27T02:32:46.448Z,71.10
2023-03-27T02:36:05.227Z,69.90
2023-03-27T02:39:12.823Z,71.70
2023-03-27T02:42:14.821Z,70.90
2023-03-27T02:45:48.621Z,68.30
2023-03-27T02:48:55.239Z,68.40
2023-03-27T02:52:09.986Z,67.50
2023-03-27T02:55:20.978Z,66.60
2023-03-27T02:58:30.991Z,65.60
2023-03-27T03:01:40.561Z,65.40
2023-03-27T03:05:02.165Z,64.60
2023-03-27T03:08:10.441Z,65.10
2023-03-27T03:11:14.023Z,65.40
2023-03-27T03:14:23.225Z,64.10
2023-03-27T03:17:28.366Z,65.90
2023-03-27T03:20:30.379Z,67.10
2023-03-27T03:23:32.451Z,66.20
2023-03-27T03:26:36.798Z,64.90
2023-03-27T03:29:39.907Z,65.30
2023-03-27T03:32:48.717Z,66.30
2023-03-27T03:35:51.239Z,66.00
2023-03-27T03:39:04.546Z,65.80
2023-03-27T03:42:07.431Z,66.10
2023-03-27T03:45:09.982Z,65.00
2023-03-27T03:48:12.297Z,65.30
2023-03-27T03:51:14.253Z,65.90
2023-03-27T03:54:16.208Z,65.00
2023-03-27T03:57:19.215Z,65.30
2023-03-27T04:00:36.379Z,65.50
2023-03-27T04:03:38.519Z,65.70
2023-03-27T04:06:41.059Z,66.70
2023-03-27T04:09:43.309Z,66.60
2023-03-27T04:13:00.120Z,66.50
2023-03-27T04:16:05.362Z,67.30
2023-03-27T04:19:14.124Z,66.30
2023-03-27T04:22:17.824Z,67.00
2023-03-27T04:25:22.101Z,67.90
2023-03-27T04:28:24.202Z,68.00
2023-03-27T04:31:39.258Z,67.40
2023-03-27T04:35:13.475Z,68.40
2023-03-27T04:38:28.175Z,69.10
2023-03-27T04:41:33.569Z,68.50
2023-03-27T04:44:36.350Z,69.00
2023-03-27T04:47:39.216Z,68.50
2023-03-27T04:50:42.658Z,67.60
2023-03-27T04:53:47.352Z,66.60
2023-03-27T04:56:50.530Z,65.60
2023-03-27T04:59:52.587Z,64.50
2023-03-27T05:03:14.963Z,64.40
2023-03-27T05:06:31.833Z,64.60
2023-03-27T05:09:34.493Z,65.90
2023-03-27T05:12:36.719Z,66.30
2023-03-27T05:15:38.804Z,67.60
2023-03-27T05:18:44.237Z,66.80
2023-03-27T05:21:47.582Z,65.70
2023-03-27T05:24:49.550Z,66.90
2023-03-27T05:27:52.840Z,65.50
2023-03-27T05:30:55.827Z,66.20
2023-03-27T05:34:00.302Z,66.30
2023-03-27T05:37:05.961Z,65.50
2023-03-27T05:40:17.965Z,65.20
2023-03-27T05:43:19.995Z,65.90
2023-03-27T05:46:22.538Z,65.40
2023-03-27T05:49:34.239Z,64.80
2023-03-27T05:52:44.438Z,65.10
2023-03-27T05:55:46.493Z,65.90
2023-03-27T05:58:48.511Z,65.90
2023-03-27T06:01:51.038Z,65.00
2023-03-27T06:04:59.516Z,64.80
2023-03-27T06:11:21.802Z,63.90
2023-03-27T06:14:23.994Z,63.20
2023-03-27T06:17:57.608Z,64.10
2023-03-27T06:21:01.270Z,63.30
2023-03-27T06:24:03.557Z,63.10
2023-03-27T06:27:05.555Z,61.90
2023-03-27T06:30:11.940Z,63.70
2023-03-27T06:33:17.830Z,63.00
2023-03-27T06:36:20.688Z,61.90
2023-03-27T06:39:25.792Z,59.20
2023-03-27T06:42:28.004Z,55.90
2023-03-27T06:45:38.488Z,54.40
2023-03-27T06:48:59.459Z,54.60
2023-03-27T06:52:01.863Z,55.80
2023-03-27T06:55:05.119Z,56.80
2023-03-27T06:58:07.529Z,52.50
2023-03-27T07:01:09.454Z,52.80
2023-03-27T07:04:33.171Z,54.50
2023-03-27T07:07:41.430Z,54.40
2023-03-27T07:10:45.758Z,54.90
2023-03-27T07:13:49.189Z,55.10
2023-03-27T07:16:58.242Z,53.20
2023-03-27T07:20:05.211Z,51.20
2023-03-27T07:23:08.344Z,48.70
2023-03-27T07:26:27.640Z,47.30
2023-03-27T07:29:37.413Z,48.70
2023-03-27T07:32:41.444Z,43.90
2023-03-27T07:35:45.186Z,41.50
2023-03-27T07:39:13.845Z,41.00
2023-03-27T07:42:15.954Z,38.50
2023-03-27T07:45:28.984Z,39.20
2023-03-27T07:48:32.633Z,39.60
2023-03-27T07:51:34.912Z,36.00
2023-03-27T07:54:37.157Z,37.40
2023-03-27T07:57:58.018Z,35.60
2023-03-27T08:01:04.630Z,36.20
2023-03-27T08:04:07.405Z,34.00
2023-03-27T08:07:11.826Z,35.80
2023-03-27T08:10:16.940Z,33.90
2023-03-27T08:13:33.716Z,35.00
2023-03-27T08:16:40.259Z,32.20
2023-03-27T08:19:43.662Z,32.30
2023-03-27T08:22:46.551Z,34.60
2023-03-27T08:26:07.757Z,33.40
2023-03-27T08:29:17.575Z,33.60
2023-03-27T08:32:23.266Z,35.80
2023-03-27T08:35:28.391Z,36.40
2023-03-27T08:38:30.465Z,38.00
2023-03-27T08:41:53.118Z,35.80
2023-03-27T08:45:16.910Z,39.00
2023-03-27T08:48:36.015Z,38.30
2023-03-27T08:51:45.253Z,36.20
2023-03-27T08:55:00.216Z,36.50
2023-03-27T08:58:22.069Z,35.80
2023-03-27T09:01:44.833Z,35.30
2023-03-27T09:04:51.291Z,34.00
2023-03-27T09:08:02.958Z,36.00
2023-03-27T09:11:27.225Z,35.20
2023-03-27T09:14:40.115Z,35.00
2023-03-27T09:17:43.760Z,36.00
2023-03-27T09:20:53.495Z,37.00
2023-03-27T09:23:59.309Z,36.70
2023-03-27T09:27:34.132Z,37.90
2023-03-27T09:31:21.685Z,34.00
2023-03-27T09:34:27.231Z,34.80
2023-03-27T09:37:29.200Z,34.30
2023-03-27T09:40:44.640Z,34.50
2023-03-27T09:44:09.652Z,31.20
2023-03-27T09:47:25.031Z,33.10
2023-03-27T09:50:34.042Z,32.40
2023-03-27T09:53:58.469Z,32.60
2023-03-27T09:57:11.973Z,34.80
2023-03-27T10:00:32.897Z,36.20
2023-03-27T10:03:42.621Z,38.50
2023-03-27T10:06:48.493Z,40.30
2023-03-27T10:10:15.672Z,43.60
2023-03-27T10:13:53.690Z,48.40
2023-03-27T10:16:58.865Z,49.30
2023-03-27T10:20:05.997Z,48.60
2023-03-27T10:23:24.677Z,41.40
2023-03-27T10:26:28.554Z,37.70
2023-03-27T10:29:38.323Z,38.50
2023-03-27T10:32:47.826Z,35.70
2023-03-27T10:36:11.152Z,35.10
2023-03-27T10:39:14.821Z,32.30
2023-03-27T10:42:35.706Z,35.30
2023-03-27T10:45:50.812Z,33.90
2023-03-27T10:49:10.843Z,32.10
2023-03-27T11:03:35.361Z,39.10
2023-03-27T11:06:42.158Z,42.20
2023-03-27T11:09:54.031Z,40.40
2023-03-27T11:13:06.701Z,40.50
2023-03-27T11:16:20.972Z,41.50
2023-03-27T11:19:48.788Z,40.30
2023-03-27T11:24:01.156Z,39.10
2023-03-27T11:27:14.725Z,41.80
2023-03-27T11:30:36.772Z,41.00
2023-03-27T11:34:01.177Z,41.50
2023-03-27T11:37:10.457Z,42.00
2023-03-27T11:40:29.243Z,42.70
2023-03-27T11:43:51.485Z,42.70
2023-03-27T11:47:50.039Z,43.70
2023-03-27T11:51:02.566Z,43.90
2023-03-27T11:54:20.684Z,41.30
2023-03-27T11:58:08.611Z,42.70
2023-03-27T12:01:23.531Z,42.60
2023-03-27T12:04:57.785Z,42.00
2023-03-27T12:08:30.117Z,41.30
2023-03-27T12:11:44.480Z,41.40
2023-03-27T12:15:11.655Z,42.80
2023-03-27T12:22:34.412Z,45.00
2023-03-27T12:26:00.683Z,43.30
2023-03-27T12:29:58.866Z,47.80
2023-03-27T12:33:39.560Z,51.70
2023-03-27T12:36:46.025Z,57.30
2023-03-27T12:39:58.335Z,60.10
2023-03-27T12:43:24.968Z,64.10
2023-03-27T12:46:41.077Z,64.60
2023-03-27T12:49:48.444Z,67.40
2023-03-27T12:53:25.444Z,67.60
2023-03-27T12:56:36.093Z,64.40
2023-03-27T13:00:11.199Z,62.20
2023-03-27T13:03:56.693Z,66.70
2023-03-27T13:07:24.475Z,62.30
2023-03-27T13:11:00.392Z,64.00
2023-03-27T13:14:32.869Z,58.90
2023-03-27T13:17:54.969Z,61.00
2023-03-27T13:21:15.710Z,58.80
2023-03-27T13:24:41.766Z,59.50
2023-03-27T13:28:04.087Z,61.50
2023-03-27T13:31:11.700Z,62.50
2023-03-27T13:34:39.918Z,59.50
2023-03-27T13:37:50.023Z,58.70
2023-03-27T13:41:17.222Z,57.10
2023-03-27T13:44:37.001Z,55.10
2023-03-27T13:47:57.418Z,53.70
2023-03-27T13:51:21.043Z,52.10
2023-03-27T13:55:12.343Z,48.80
2023-03-27T13:58:45.916Z,50.10
2023-03-27T14:05:20.533Z,47.10
2023-03-27T14:08:49.604Z,49.70
2023-03-27T14:12:20.949Z,51.40
2023-03-27T14:16:12.755Z,53.20
2023-03-27T14:19:49.296Z,59.80
2023-03-27T14:23:07.811Z,66.00
2023-03-27T14:26:30.430Z,65.20
2023-03-27T14:29:33.834Z,67.60
2023-03-27T14:32:36.162Z,70.70
2023-03-27T14:35:42.884Z,69.90
2023-03-27T14:38:49.800Z,67.10
2023-03-27T14:42:20.367Z,65.00
2023-03-27T14:45:27.672Z,66.20
2023-03-27T14:48:35.063Z,70.00
2023-03-27T14:51:38.892Z,69.90
2023-03-27T14:54:54.746Z,70.80
2023-03-27T14:58:04.087Z,69.00
2023-03-27T15:01:06.256Z,68.60
2023-03-27T15:04:09.665Z,69.20
2023-03-27T15:07:17.721Z,69.60
2023-03-27T15:10:34.939Z,67.50
2023-03-27T15:14:06.842Z,68.40
2023-03-27T15:17:16.671Z,68.20
2023-03-27T15:20:21.469Z,67.90
2023-03-27T15:23:27.932Z,70.60
2023-03-27T15:26:32.940Z,66.40
2023-03-27T15:29:46.014Z,69.00
2023-03-27T15:32:51.208Z,69.10
2023-03-27T15:35:57.188Z,68.00
2023-03-27T15:39:01.085Z,67.60
2023-03-27T15:42:06.448Z,67.70
2023-03-27T15:45:10.830Z,69.00
2023-03-27T15:48:34.380Z,66.50
2023-03-27T15:51:36.687Z,68.00
2023-03-27T15:54:54.340Z,67.20
2023-03-27T15:57:56.507Z,66.60
2023-03-27T16:01:02.028Z,64.40
2023-03-27T16:04:12.961Z,65.40
2023-03-27T16:07:23.097Z,64.90
2023-03-27T16:10:32.771Z,64.10
2023-03-27T16:13:41.519Z,63.30
2023-03-27T16:16:43.686Z,62.40
2023-03-27T16:20:05.913Z,60.20
2023-03-27T16:23:07.968Z,60.50
2023-03-27T16:26:15.416Z,59.90
2023-03-27T16:29:18.795Z,60.00
2023-03-27T16:32:22.558Z,59.20
2023-03-27T16:35:24.925Z,58.90
2023-03-27T16:38:27.284Z,59.40
2023-03-27T16:41:29.713Z,59.80
2023-03-27T16:44:32.416Z,58.60
2023-03-27T16:47:34.864Z,59.60
2023-03-27T16:50:36.911Z,57.40
2023-03-27T16:53:39.142Z,60.30
2023-03-27T16:56:41.307Z,58.90
2023-03-27T16:59:43.577Z,61.00
2023-03-27T17:02:45.837Z,62.80
2023-03-27T17:05:48.028Z,61.90
2023-03-27T17:08:50.396Z,64.60
2023-03-27T17:11:52.637Z,63.50
2023-03-27T17:14:56.285Z,63.90
2023-03-27T17:17:58.506Z,63.40
2023-03-27T17:21:00.930Z,62.60
2023-03-27T17:24:03.117Z,62.00
2023-03-27T17:27:06.359Z,62.20
2023-03-27T17:30:09.258Z,62.20
2023-03-27T17:33:12.087Z,62.50
2023-03-27T17:36:23.890Z,63.20
2023-03-27T17:39:32.100Z,62.90
2023-03-27T17:42:34.338Z,61.00
2023-03-27T17:45:43.850Z,61.30
2023-03-27T17:48:46.106Z,59.90
2023-03-27T17:51:48.272Z,61.00
2023-03-27T17:54:50.731Z,59.40
2023-03-27T17:58:05.955Z,59.20
2023-03-27T18:01:21.805Z,59.80
2023-03-27T18:04:24.583Z,60.70
2023-03-27T18:07:26.825Z,59.80
2023-03-27T18:10:29.122Z,59.10
2023-03-27T18:13:31.178Z,60.10
2023-03-27T18:16:33.467Z,60.10
2023-03-27T18:19:36.294Z,62.10
2023-03-27T18:22:39.257Z,59.90
2023-03-27T18:25:41.409Z,60.70
2023-03-27T18:28:43.883Z,60.20
2023-03-27T18:31:46.140Z,59.80
2023-03-27T18:34:48.159Z,61.20
2023-03-27T18:37:50.566Z,61.40
2023-03-27T18:40:58.975Z,61.00
2023-03-27T18:44:01.529Z,60.60
2023-03-27T18:47:03.654Z,60.30
2023-03-27T18:50:06.844Z,60.60
2023-03-27T18:53:08.885Z,62.60
2023-03-27T18:56:11.192Z,64.00
2023-03-27T18:59:13.264Z,64.70
2023-03-27T19:02:16.586Z,65.20
2023-03-27T19:05:18.680Z,65.40
2023-03-27T19:08:22.151Z,66.40
2023-03-27T19:11:24.350Z,65.60
2023-03-27T19:14:50.125Z,66.30
2023-03-27T19:18:11.289Z,67.10
2023-03-27T19:21:36.321Z,66.60
2023-03-27T19:24:41.960Z,67.40
2023-03-27T19:27:44.391Z,66.30
2023-03-27T19:30:46.693Z,66.70
2023-03-27T19:33:49.766Z,66.70
2023-03-27T19:36:52.290Z,66.60
2023-03-27T19:39:54.816Z,67.00
2023-03-27T19:42:56.988Z,68.10
2023-03-27T19:46:15.608Z,67.40
2023-03-27T19:49:18.268Z,66.70
2023-03-27T19:52:35.321Z,68.00
2023-03-27T19:55:37.645Z,68.00
2023-03-27T19:58:40.026Z,68.30
2023-03-27T20:01:42.167Z,68.00
2023-03-27T20:04:44.300Z,68.60
2023-03-27T20:07:46.532Z,67.30
2023-03-27T20:10:50.377Z,68.70
2023-03-27T20:13:56.704Z,68.30
2023-03-27T20:16:59.376Z,68.50
2023-03-27T20:20:01.441Z,68.80
2023-03-27T20:23:03.496Z,69.30
2023-03-27T20:26:05.664Z,69.70
2023-03-27T20:29:14.559Z,69.20
2023-03-27T20:32:16.740Z,69.90
2023-03-27T20:35:24.232Z,69.00
2023-03-27T20:38:27.218Z,70.00
2023-03-27T20:41:29.851Z,70.00
2023-03-27T20:44:31.975Z,70.50
2023-03-27T20:47:34.204Z,69.70
2023-03-27T20:50:37.318Z,70.80
2023-03-27T20:53:39.422Z,71.50
2023-03-27T20:56:41.902Z,71.80
2023-03-27T20:59:46.234Z,71.50
2023-03-27T21:02:51.070Z,72.00
2023-03-27T21:05:53.662Z,72.90
2023-03-27T21:08:55.703Z,72.00
2023-03-27T21:11:57.738Z,71.30
2023-03-27T21:15:00.144Z,71.10
2023-03-27T21:18:02.359Z,70.90
2023-03-27T21:21:05.242Z,71.00
2023-03-27T21:24:07.557Z,71.60
2023-03-27T21:27:10.982Z,72.00
2023-03-27T21:30:16.357Z,71.60
2023-03-27T21:33:18.653Z,72.10
2023-03-27T21:36:23.425Z,73.50
2023-03-27T21:39:25.636Z,74.50
2023-03-27T21:42:27.877Z,74.20
2023-03-27T21:45:31.493Z,74.60
2023-03-27T21:48:33.495Z,74.60
2023-03-27T21:51:35.593Z,74.70
2023-03-27T21:54:37.644Z,74.70
2023-03-27T21:57:39.942Z,75.50
2023-03-27T22:00:45.546Z,74.70
2023-03-27T22:03:47.602Z,74.50
2023-03-27T22:06:49.858Z,75.40
2023-03-27T22:09:51.887Z,75.80
2023-03-27T22:12:53.936Z,75.90
2023-03-27T22:15:56.005Z,76.40
2023-03-27T22:19:02.453Z,76.60
2023-03-27T22:22:04.512Z,76.00
2023-03-27T22:25:06.995Z,75.50
2023-03-27T22:28:09.098Z,74.90
2023-03-27T22:31:11.406Z,75.60
2023-03-27T22:34:13.603Z,75.30
2023-03-27T22:37:16.566Z,75.50
2023-03-27T22:40:18.695Z,74.70
2023-03-27T22:43:23.256Z,75.20
2023-03-27T22:46:27.574Z,75.70
2023-03-27T22:49:29.684Z,75.40
2023-03-27T22:52:31.898Z,75.20
2023-03-27T22:55:33.929Z,75.30
2023-03-27T22:58:36.122Z,75.40
2023-03-27T23:01:38.219Z,75.40
2023-03-27T23:04:40.469Z,75.90
2023-03-27T23:07:42.573Z,76.00
2023-03-27T23:10:46.298Z,76.40
2023-03-27T23:13:49.526Z,76.50
2023-03-27T23:16:51.584Z,77.10
2023-03-27T23:19:53.656Z,76.90
2023-03-27T23:22:55.862Z,77.10
2023-03-27T23:25:58.978Z,77.50
2023-03-27T23:29:01.276Z,77.20
2023-03-27T23:32:05.174Z,77.90
2023-03-27T23:35:11.783Z,78.10
2023-03-27T23:38:13.925Z,77.90
2023-03-27T23:41:16.799Z,78.70
2023-03-27T23:44:18.887Z,78.40
2023-03-27T23:47:21.117Z,77.50
2023-03-27T23:50:23.168Z,76.50
2023-03-27T23:53:27.454Z,75.90
2023-03-27T23:56:29.651Z,75.30
2023-03-27T23:59:37.964Z,75.40
